sensor_id;sensor_type;location;lat;lon;timestamp;P1;durP1;ratioP1;P2;durP2;ratioP2
16593;SDS011;8410;52.532;13.336;2024-03-17T00:00:45;10.23;;;2.40;;
16593;SDS011;8410;52.532;13.336;2024-03-17T00:03:11;16.37;;;2.43;;
16593;SDS011;8410;52.532;13.336;2024-03-17T00:05:39;18.20;;;2.77;;
16593;SDS011;8410;52.532;13.336;2024-03-17T00:08:04;12.60;;;2.57;;
16593;SDS011;8410;52.532;13.336;2024-03-17T00:10:31;13.27;;;2.90;;
16593;SDS011;8410;52.532;13.336;2024-03-17T00:12:57;11.40;;;2.60;;
16593;SDS011;8410;52.532;13.336;2024-03-17T00:15:24;12.73;;;2.87;;
16593;SDS011;8410;52.532;13.336;2024-03-17T00:17:49;13.03;;;2.90;;
16593;SDS011;8410;52.532;13.336;2024-03-17T00:20:16;11.97;;;2.60;;
16593;SDS011;8410;52.532;13.336;2024-03-17T00:22:45;14.93;;;2.53;;
16593;SDS011;8410;52.532;13.336;2024-03-17T00:25:13;10.70;;;2.60;;
16593;SDS011;8410;52.532;13.336;2024-03-17T00:27:38;12.80;;;2.67;;
16593;SDS011;8410;52.532;13.336;2024-03-17T00:30:09;12.00;;;3.13;;
16593;SDS011;8410;52.532;13.336;2024-03-17T00:32:38;12.17;;;2.10;;
16593;SDS011;8410;52.532;13.336;2024-03-17T00:35:05;16.47;;;2.70;;
16593;SDS011;8410;52.532;13.336;2024-03-17T00:37:32;11.90;;;2.50;;
16593;SDS011;8410;52.532;13.336;2024-03-17T00:40:00;18.70;;;3.57;;
16593;SDS011;8410;52.532;13.336;2024-03-17T00:42:26;9.63;;;1.97;;
16593;SDS011;8410;52.532;13.336;2024-03-17T00:44:53;11.03;;;2.00;;
16593;SDS011;8410;52.532;13.336;2024-03-17T00:47:19;14.53;;;2.53;;
16593;SDS011;8410;52.532;13.336;2024-03-17T00:49:45;22.20;;;4.33;;
16593;SDS011;8410;52.532;13.336;2024-03-17T00:52:11;13.47;;;2.73;;
16593;SDS011;8410;52.532;13.336;2024-03-17T00:54:37;12.37;;;3.10;;
16593;SDS011;8410;52.532;13.336;2024-03-17T00:57:04;12.27;;;2.53;;
16593;SDS011;8410;52.532;13.336;2024-03-17T00:59:31;9.47;;;2.23;;
16593;SDS011;8410;52.532;13.336;2024-03-17T01:01:56;11.43;;;2.60;;
16593;SDS011;8410;52.532;13.336;2024-03-17T01:04:23;16.50;;;2.33;;
16593;SDS011;8410;52.532;13.336;2024-03-17T01:06:48;14.13;;;2.90;;
16593;SDS011;8410;52.532;13.336;2024-03-17T01:09:15;14.67;;;2.20;;
16593;SDS011;8410;52.532;13.336;2024-03-17T01:11:41;12.80;;;2.40;;
16593;SDS011;8410;52.532;13.336;2024-03-17T01:14:08;14.87;;;2.07;;
16593;SDS011;8410;52.532;13.336;2024-03-17T01:16:34;10.23;;;1.87;;
16593;SDS011;8410;52.532;13.336;2024-03-17T01:19:01;15.20;;;2.87;;
16593;SDS011;8410;52.532;13.336;2024-03-17T01:21:27;10.10;;;2.60;;
16593;SDS011;8410;52.532;13.336;2024-03-17T01:23:53;12.90;;;2.63;;
16593;SDS011;8410;52.532;13.336;2024-03-17T01:26:19;12.17;;;2.73;;
16593;SDS011;8410;52.532;13.336;2024-03-17T01:28:45;13.90;;;2.70;;
16593;SDS011;8410;52.532;13.336;2024-03-17T01:31:12;11.97;;;2.20;;
16593;SDS011;8410;52.532;13.336;2024-03-17T01:33:39;9.63;;;2.40;;
16593;SDS011;8410;52.532;13.336;2024-03-17T01:36:05;18.17;;;3.60;;
16593;SDS011;8410;52.532;13.336;2024-03-17T01:38:32;14.20;;;2.53;;
16593;SDS011;8410;52.532;13.336;2024-03-17T01:40:58;10.60;;;2.43;;
16593;SDS011;8410;52.532;13.336;2024-03-17T01:43:24;13.63;;;2.53;;
16593;SDS011;8410;52.532;13.336;2024-03-17T01:45:51;13.17;;;2.80;;
16593;SDS011;8410;52.532;13.336;2024-03-17T01:48:20;12.90;;;3.40;;
16593;SDS011;8410;52.532;13.336;2024-03-17T01:50:46;12.70;;;3.10;;
16593;SDS011;8410;52.532;13.336;2024-03-17T01:53:15;11.33;;;2.33;;
16593;SDS011;8410;52.532;13.336;2024-03-17T01:55:42;11.47;;;2.60;;
16593;SDS011;8410;52.532;13.336;2024-03-17T01:58:10;16.73;;;2.33;;
16593;SDS011;8410;52.532;13.336;2024-03-17T02:00:36;10.00;;;2.23;;
16593;SDS011;8410;52.532;13.336;2024-03-17T02:03:04;12.00;;;2.67;;
16593;SDS011;8410;52.532;13.336;2024-03-17T02:05:31;11.77;;;2.30;;
16593;SDS011;8410;52.532;13.336;2024-03-17T02:07:59;14.47;;;2.37;;
16593;SDS011;8410;52.532;13.336;2024-03-17T02:10:25;10.67;;;2.37;;
16593;SDS011;8410;52.532;13.336;2024-03-17T02:12:51;13.87;;;2.47;;
16593;SDS011;8410;52.532;13.336;2024-03-17T02:15:19;10.03;;;2.60;;
16593;SDS011;8410;52.532;13.336;2024-03-17T02:17:44;17.23;;;2.47;;
16593;SDS011;8410;52.532;13.336;2024-03-17T02:20:11;10.10;;;2.10;;
16593;SDS011;8410;52.532;13.336;2024-03-17T02:22:38;13.27;;;2.63;;
16593;SDS011;8410;52.532;13.336;2024-03-17T02:25:05;13.83;;;2.87;;
16593;SDS011;8410;52.532;13.336;2024-03-17T02:27:33;18.60;;;2.40;;
16593;SDS011;8410;52.532;13.336;2024-03-17T02:30:00;14.10;;;2.40;;
16593;SDS011;8410;52.532;13.336;2024-03-17T02:32:25;15.30;;;2.77;;
16593;SDS011;8410;52.532;13.336;2024-03-17T02:34:53;13.10;;;2.63;;
16593;SDS011;8410;52.532;13.336;2024-03-17T02:37:19;16.47;;;2.80;;
16593;SDS011;8410;52.532;13.336;2024-03-17T02:39:48;14.23;;;2.50;;
16593;SDS011;8410;52.532;13.336;2024-03-17T02:42:14;14.37;;;2.30;;
16593;SDS011;8410;52.532;13.336;2024-03-17T02:44:40;10.50;;;2.23;;
16593;SDS011;8410;52.532;13.336;2024-03-17T02:47:07;22.57;;;2.93;;
16593;SDS011;8410;52.532;13.336;2024-03-17T02:49:35;11.30;;;2.00;;
16593;SDS011;8410;52.532;13.336;2024-03-17T02:52:04;15.67;;;2.63;;
16593;SDS011;8410;52.532;13.336;2024-03-17T02:54:32;9.60;;;2.70;;
16593;SDS011;8410;52.532;13.336;2024-03-17T02:57:01;13.07;;;2.37;;
16593;SDS011;8410;52.532;13.336;2024-03-17T02:59:27;8.40;;;1.80;;
16593;SDS011;8410;52.532;13.336;2024-03-17T03:01:54;14.50;;;2.77;;
16593;SDS011;8410;52.532;13.336;2024-03-17T03:04:21;14.97;;;2.50;;
16593;SDS011;8410;52.532;13.336;2024-03-17T03:06:47;16.70;;;2.73;;
16593;SDS011;8410;52.532;13.336;2024-03-17T03:09:14;14.33;;;2.93;;
16593;SDS011;8410;52.532;13.336;2024-03-17T03:11:46;9.03;;;2.47;;
16593;SDS011;8410;52.532;13.336;2024-03-17T03:14:14;17.20;;;2.87;;
16593;SDS011;8410;52.532;13.336;2024-03-17T03:16:40;12.83;;;2.30;;
16593;SDS011;8410;52.532;13.336;2024-03-17T03:19:07;16.13;;;3.07;;
16593;SDS011;8410;52.532;13.336;2024-03-17T03:21:33;137.33;;;107.07;;
16593;SDS011;8410;52.532;13.336;2024-03-17T03:24:01;124.37;;;100.60;;
16593;SDS011;8410;52.532;13.336;2024-03-17T03:26:27;115.13;;;94.07;;
16593;SDS011;8410;52.532;13.336;2024-03-17T03:28:54;84.13;;;69.33;;
16593;SDS011;8410;52.532;13.336;2024-03-17T03:31:22;45.40;;;38.37;;
16593;SDS011;8410;52.532;13.336;2024-03-17T03:33:49;39.40;;;27.40;;
16593;SDS011;8410;52.532;13.336;2024-03-17T03:36:15;38.33;;;29.67;;
16593;SDS011;8410;52.532;13.336;2024-03-17T03:38:42;13.93;;;3.37;;
16593;SDS011;8410;52.532;13.336;2024-03-17T03:41:09;12.47;;;2.30;;
16593;SDS011;8410;52.532;13.336;2024-03-17T03:43:37;9.93;;;2.20;;
16593;SDS011;8410;52.532;13.336;2024-03-17T03:46:04;13.53;;;2.73;;
16593;SDS011;8410;52.532;13.336;2024-03-17T03:48:32;14.90;;;2.57;;
16593;SDS011;8410;52.532;13.336;2024-03-17T03:50:59;11.33;;;2.47;;
16593;SDS011;8410;52.532;13.336;2024-03-17T03:53:30;14.37;;;3.00;;
16593;SDS011;8410;52.532;13.336;2024-03-17T03:55:56;12.37;;;2.77;;
16593;SDS011;8410;52.532;13.336;2024-03-17T03:58:23;10.63;;;2.60;;
16593;SDS011;8410;52.532;13.336;2024-03-17T04:00:50;15.37;;;3.17;;
16593;SDS011;8410;52.532;13.336;2024-03-17T04:03:16;16.43;;;3.57;;
16593;SDS011;8410;52.532;13.336;2024-03-17T04:05:44;10.77;;;2.20;;
16593;SDS011;8410;52.532;13.336;2024-03-17T04:08:11;14.03;;;2.50;;
16593;SDS011;8410;52.532;13.336;2024-03-17T04:10:37;18.73;;;2.90;;
16593;SDS011;8410;52.532;13.336;2024-03-17T04:13:04;15.30;;;2.30;;
16593;SDS011;8410;52.532;13.336;2024-03-17T04:15:31;12.93;;;2.10;;
16593;SDS011;8410;52.532;13.336;2024-03-17T04:17:57;16.03;;;2.77;;
16593;SDS011;8410;52.532;13.336;2024-03-17T04:20:24;12.53;;;2.87;;
16593;SDS011;8410;52.532;13.336;2024-03-17T04:22:52;16.53;;;2.53;;
16593;SDS011;8410;52.532;13.336;2024-03-17T04:25:18;17.77;;;2.67;;
16593;SDS011;8410;52.532;13.336;2024-03-17T04:27:45;13.43;;;2.73;;
16593;SDS011;8410;52.532;13.336;2024-03-17T04:30:11;11.50;;;2.20;;
16593;SDS011;8410;52.532;13.336;2024-03-17T04:32:39;13.90;;;2.80;;
16593;SDS011;8410;52.532;13.336;2024-03-17T04:35:06;14.27;;;2.47;;
16593;SDS011;8410;52.532;13.336;2024-03-17T04:37:33;13.00;;;2.70;;
16593;SDS011;8410;52.532;13.336;2024-03-17T04:40:06;12.20;;;2.60;;
16593;SDS011;8410;52.532;13.336;2024-03-17T04:42:35;14.73;;;2.47;;
16593;SDS011;8410;52.532;13.336;2024-03-17T04:45:04;15.07;;;2.87;;
16593;SDS011;8410;52.532;13.336;2024-03-17T04:47:32;14.30;;;2.63;;
16593;SDS011;8410;52.532;13.336;2024-03-17T04:49:59;16.27;;;2.77;;
16593;SDS011;8410;52.532;13.336;2024-03-17T04:52:25;12.00;;;2.17;;
16593;SDS011;8410;52.532;13.336;2024-03-17T04:54:52;17.30;;;3.97;;
16593;SDS011;8410;52.532;13.336;2024-03-17T04:57:20;10.93;;;2.50;;
16593;SDS011;8410;52.532;13.336;2024-03-17T04:59:46;15.33;;;3.17;;
16593;SDS011;8410;52.532;13.336;2024-03-17T05:02:13;12.63;;;3.00;;
16593;SDS011;8410;52.532;13.336;2024-03-17T05:04:39;13.97;;;2.10;;
16593;SDS011;8410;52.532;13.336;2024-03-17T05:07:07;17.23;;;3.27;;
16593;SDS011;8410;52.532;13.336;2024-03-17T05:09:34;15.50;;;2.73;;
16593;SDS011;8410;52.532;13.336;2024-03-17T05:12:00;14.80;;;2.97;;
16593;SDS011;8410;52.532;13.336;2024-03-17T05:14:28;14.50;;;2.90;;
16593;SDS011;8410;52.532;13.336;2024-03-17T05:16:55;10.87;;;2.93;;
16593;SDS011;8410;52.532;13.336;2024-03-17T05:19:21;15.10;;;2.83;;
16593;SDS011;8410;52.532;13.336;2024-03-17T05:21:49;11.60;;;2.60;;
16593;SDS011;8410;52.532;13.336;2024-03-17T05:24:15;14.17;;;2.87;;
16593;SDS011;8410;52.532;13.336;2024-03-17T05:26:42;11.37;;;2.57;;
16593;SDS011;8410;52.532;13.336;2024-03-17T05:29:10;15.93;;;2.47;;
16593;SDS011;8410;52.532;13.336;2024-03-17T05:31:38;16.83;;;2.80;;
16593;SDS011;8410;52.532;13.336;2024-03-17T05:34:05;14.50;;;3.10;;
16593;SDS011;8410;52.532;13.336;2024-03-17T05:36:32;15.90;;;2.87;;
16593;SDS011;8410;52.532;13.336;2024-03-17T05:38:59;16.27;;;2.90;;
16593;SDS011;8410;52.532;13.336;2024-03-17T05:41:25;9.53;;;2.60;;
16593;SDS011;8410;52.532;13.336;2024-03-17T05:43:53;18.97;;;2.77;;
16593;SDS011;8410;52.532;13.336;2024-03-17T05:46:23;15.50;;;2.50;;
16593;SDS011;8410;52.532;13.336;2024-03-17T05:48:52;14.67;;;3.13;;
16593;SDS011;8410;52.532;13.336;2024-03-17T05:51:18;15.60;;;2.67;;
16593;SDS011;8410;52.532;13.336;2024-03-17T05:53:45;19.90;;;3.90;;
16593;SDS011;8410;52.532;13.336;2024-03-17T05:56:12;12.27;;;2.60;;
16593;SDS011;8410;52.532;13.336;2024-03-17T05:58:41;11.00;;;2.57;;
16593;SDS011;8410;52.532;13.336;2024-03-17T06:01:07;11.87;;;2.70;;
16593;SDS011;8410;52.532;13.336;2024-03-17T06:03:34;15.73;;;2.70;;
16593;SDS011;8410;52.532;13.336;2024-03-17T06:06:03;13.10;;;2.53;;
16593;SDS011;8410;52.532;13.336;2024-03-17T06:08:32;19.77;;;3.00;;
16593;SDS011;8410;52.532;13.336;2024-03-17T06:10:59;9.27;;;2.30;;
16593;SDS011;8410;52.532;13.336;2024-03-17T06:13:26;11.57;;;2.67;;
16593;SDS011;8410;52.532;13.336;2024-03-17T06:15:53;17.03;;;2.77;;
16593;SDS011;8410;52.532;13.336;2024-03-17T06:18:20;14.37;;;2.40;;
16593;SDS011;8410;52.532;13.336;2024-03-17T06:20:48;11.57;;;2.53;;
16593;SDS011;8410;52.532;13.336;2024-03-17T06:23:16;14.77;;;2.93;;
16593;SDS011;8410;52.532;13.336;2024-03-17T06:25:43;15.60;;;2.90;;
16593;SDS011;8410;52.532;13.336;2024-03-17T06:28:11;14.57;;;3.00;;
16593;SDS011;8410;52.532;13.336;2024-03-17T06:30:40;11.87;;;3.10;;
16593;SDS011;8410;52.532;13.336;2024-03-17T06:33:06;14.50;;;3.07;;
16593;SDS011;8410;52.532;13.336;2024-03-17T06:35:35;13.63;;;2.70;;
16593;SDS011;8410;52.532;13.336;2024-03-17T06:38:02;10.47;;;2.23;;
16593;SDS011;8410;52.532;13.336;2024-03-17T06:40:30;16.73;;;2.63;;
16593;SDS011;8410;52.532;13.336;2024-03-17T06:42:57;8.90;;;1.80;;
16593;SDS011;8410;52.532;13.336;2024-03-17T06:45:24;13.70;;;3.20;;
16593;SDS011;8410;52.532;13.336;2024-03-17T06:47:50;10.03;;;2.17;;
16593;SDS011;8410;52.532;13.336;2024-03-17T06:50:17;17.00;;;2.67;;
16593;SDS011;8410;52.532;13.336;2024-03-17T06:52:43;13.20;;;2.90;;
16593;SDS011;8410;52.532;13.336;2024-03-17T06:55:11;13.03;;;2.50;;
16593;SDS011;8410;52.532;13.336;2024-03-17T06:57:40;15.43;;;3.67;;
16593;SDS011;8410;52.532;13.336;2024-03-17T07:00:09;8.60;;;2.20;;
16593;SDS011;8410;52.532;13.336;2024-03-17T07:02:39;17.07;;;2.90;;
16593;SDS011;8410;52.532;13.336;2024-03-17T07:05:11;12.10;;;2.60;;
16593;SDS011;8410;52.532;13.336;2024-03-17T07:07:39;12.90;;;2.83;;
16593;SDS011;8410;52.532;13.336;2024-03-17T07:10:06;14.60;;;2.90;;
16593;SDS011;8410;52.532;13.336;2024-03-17T07:12:33;11.53;;;2.13;;
16593;SDS011;8410;52.532;13.336;2024-03-17T07:15:01;13.17;;;3.17;;
16593;SDS011;8410;52.532;13.336;2024-03-17T07:17:28;16.43;;;3.43;;
16593;SDS011;8410;52.532;13.336;2024-03-17T07:19:55;8.53;;;2.07;;
16593;SDS011;8410;52.532;13.336;2024-03-17T07:22:21;9.00;;;2.33;;
16593;SDS011;8410;52.532;13.336;2024-03-17T07:24:51;14.80;;;2.87;;
16593;SDS011;8410;52.532;13.336;2024-03-17T07:27:21;16.47;;;2.77;;
16593;SDS011;8410;52.532;13.336;2024-03-17T07:29:47;13.63;;;2.27;;
16593;SDS011;8410;52.532;13.336;2024-03-17T07:32:15;14.07;;;2.93;;
16593;SDS011;8410;52.532;13.336;2024-03-17T07:34:42;13.67;;;3.10;;
16593;SDS011;8410;52.532;13.336;2024-03-17T07:37:08;18.57;;;2.70;;
16593;SDS011;8410;52.532;13.336;2024-03-17T07:39:35;7.40;;;1.97;;
16593;SDS011;8410;52.532;13.336;2024-03-17T07:42:02;13.07;;;2.67;;
16593;SDS011;8410;52.532;13.336;2024-03-17T07:44:28;9.70;;;2.20;;
16593;SDS011;8410;52.532;13.336;2024-03-17T07:46:59;10.13;;;2.77;;
16593;SDS011;8410;52.532;13.336;2024-03-17T07:49:27;16.27;;;2.83;;
16593;SDS011;8410;52.532;13.336;2024-03-17T07:51:54;12.60;;;2.17;;
16593;SDS011;8410;52.532;13.336;2024-03-17T07:54:22;10.37;;;2.30;;
16593;SDS011;8410;52.532;13.336;2024-03-17T07:56:49;16.93;;;3.07;;
16593;SDS011;8410;52.532;13.336;2024-03-17T07:59:16;12.17;;;2.50;;
16593;SDS011;8410;52.532;13.336;2024-03-17T08:01:43;10.80;;;1.97;;
16593;SDS011;8410;52.532;13.336;2024-03-17T08:04:09;10.00;;;2.83;;
16593;SDS011;8410;52.532;13.336;2024-03-17T08:06:38;10.03;;;2.13;;
16593;SDS011;8410;52.532;13.336;2024-03-17T08:09:05;13.73;;;2.33;;
16593;SDS011;8410;52.532;13.336;2024-03-17T08:11:33;7.97;;;2.57;;
16593;SDS011;8410;52.532;13.336;2024-03-17T08:14:00;9.77;;;2.20;;
16593;SDS011;8410;52.532;13.336;2024-03-17T08:16:27;9.60;;;2.30;;
16593;SDS011;8410;52.532;13.336;2024-03-17T08:18:54;10.90;;;2.17;;
16593;SDS011;8410;52.532;13.336;2024-03-17T08:21:21;10.23;;;2.47;;
16593;SDS011;8410;52.532;13.336;2024-03-17T08:23:49;11.00;;;2.50;;
16593;SDS011;8410;52.532;13.336;2024-03-17T08:26:15;11.07;;;2.60;;
16593;SDS011;8410;52.532;13.336;2024-03-17T08:28:42;11.17;;;2.70;;
16593;SDS011;8410;52.532;13.336;2024-03-17T08:31:09;11.00;;;2.23;;
16593;SDS011;8410;52.532;13.336;2024-03-17T08:33:36;8.57;;;2.50;;
16593;SDS011;8410;52.532;13.336;2024-03-17T08:36:03;10.30;;;2.50;;
16593;SDS011;8410;52.532;13.336;2024-03-17T08:38:32;10.97;;;3.20;;
16593;SDS011;8410;52.532;13.336;2024-03-17T08:41:03;8.17;;;1.60;;
16593;SDS011;8410;52.532;13.336;2024-03-17T08:43:31;10.67;;;2.07;;
16593;SDS011;8410;52.532;13.336;2024-03-17T08:45:58;10.10;;;1.90;;
16593;SDS011;8410;52.532;13.336;2024-03-17T08:48:29;12.13;;;2.60;;
16593;SDS011;8410;52.532;13.336;2024-03-17T08:50:56;10.37;;;1.70;;
16593;SDS011;8410;52.532;13.336;2024-03-17T08:53:24;10.57;;;2.17;;
16593;SDS011;8410;52.532;13.336;2024-03-17T08:55:51;10.13;;;2.57;;
16593;SDS011;8410;52.532;13.336;2024-03-17T08:58:20;10.97;;;1.90;;
16593;SDS011;8410;52.532;13.336;2024-03-17T09:00:46;7.73;;;1.73;;
16593;SDS011;8410;52.532;13.336;2024-03-17T09:03:13;9.50;;;1.53;;
16593;SDS011;8410;52.532;13.336;2024-03-17T09:05:41;9.77;;;2.10;;
16593;SDS011;8410;52.532;13.336;2024-03-17T09:08:09;5.23;;;1.30;;
16593;SDS011;8410;52.532;13.336;2024-03-17T09:10:41;6.23;;;2.07;;
16593;SDS011;8410;52.532;13.336;2024-03-17T09:13:08;9.83;;;1.93;;
16593;SDS011;8410;52.532;13.336;2024-03-17T09:15:40;5.93;;;1.53;;
16593;SDS011;8410;52.532;13.336;2024-03-17T09:18:07;6.27;;;2.13;;
16593;SDS011;8410;52.532;13.336;2024-03-17T09:20:33;5.77;;;1.30;;
16593;SDS011;8410;52.532;13.336;2024-03-17T09:23:00;7.50;;;2.37;;
16593;SDS011;8410;52.532;13.336;2024-03-17T09:25:26;10.33;;;1.70;;
16593;SDS011;8410;52.532;13.336;2024-03-17T09:27:53;6.50;;;1.63;;
16593;SDS011;8410;52.532;13.336;2024-03-17T09:30:20;7.93;;;1.53;;
16593;SDS011;8410;52.532;13.336;2024-03-17T09:32:47;5.50;;;1.50;;
16593;SDS011;8410;52.532;13.336;2024-03-17T09:35:14;6.27;;;1.70;;
16593;SDS011;8410;52.532;13.336;2024-03-17T09:37:41;6.07;;;1.80;;
16593;SDS011;8410;52.532;13.336;2024-03-17T09:40:09;4.50;;;1.50;;
16593;SDS011;8410;52.532;13.336;2024-03-17T09:42:41;5.20;;;1.53;;
16593;SDS011;8410;52.532;13.336;2024-03-17T09:45:08;7.17;;;1.67;;
16593;SDS011;8410;52.532;13.336;2024-03-17T09:47:36;8.27;;;2.07;;
16593;SDS011;8410;52.532;13.336;2024-03-17T09:50:05;8.03;;;1.57;;
16593;SDS011;8410;52.532;13.336;2024-03-17T09:52:39;4.80;;;1.63;;
16593;SDS011;8410;52.532;13.336;2024-03-17T09:55:09;10.47;;;2.20;;
16593;SDS011;8410;52.532;13.336;2024-03-17T09:57:40;9.47;;;2.33;;
16593;SDS011;8410;52.532;13.336;2024-03-17T10:00:09;8.63;;;1.97;;
16593;SDS011;8410;52.532;13.336;2024-03-17T10:02:41;5.87;;;1.37;;
16593;SDS011;8410;52.532;13.336;2024-03-17T10:05:19;7.03;;;2.10;;
16593;SDS011;8410;52.532;13.336;2024-03-17T10:07:46;9.20;;;1.77;;
16593;SDS011;8410;52.532;13.336;2024-03-17T10:10:14;6.33;;;1.43;;
16593;SDS011;8410;52.532;13.336;2024-03-17T10:12:41;4.23;;;1.90;;
16593;SDS011;8410;52.532;13.336;2024-03-17T10:15:10;6.70;;;1.63;;
16593;SDS011;8410;52.532;13.336;2024-03-17T10:17:37;7.47;;;1.60;;
16593;SDS011;8410;52.532;13.336;2024-03-17T10:20:11;6.87;;;1.63;;
16593;SDS011;8410;52.532;13.336;2024-03-17T10:22:49;5.80;;;1.47;;
16593;SDS011;8410;52.532;13.336;2024-03-17T10:25:24;5.20;;;1.60;;
16593;SDS011;8410;52.532;13.336;2024-03-17T10:27:51;6.53;;;1.40;;
16593;SDS011;8410;52.532;13.336;2024-03-17T10:30:18;6.27;;;1.40;;
16593;SDS011;8410;52.532;13.336;2024-03-17T10:32:51;6.60;;;1.70;;
16593;SDS011;8410;52.532;13.336;2024-03-17T10:35:29;4.17;;;1.40;;
16593;SDS011;8410;52.532;13.336;2024-03-17T10:37:58;4.37;;;1.37;;
16593;SDS011;8410;52.532;13.336;2024-03-17T10:40:26;8.40;;;1.83;;
16593;SDS011;8410;52.532;13.336;2024-03-17T10:42:54;5.00;;;1.53;;
16593;SDS011;8410;52.532;13.336;2024-03-17T10:45:22;5.43;;;1.60;;
16593;SDS011;8410;52.532;13.336;2024-03-17T10:47:50;5.63;;;1.50;;
16593;SDS011;8410;52.532;13.336;2024-03-17T10:50:18;5.97;;;1.50;;
16593;SDS011;8410;52.532;13.336;2024-03-17T10:52:46;6.20;;;1.60;;
16593;SDS011;8410;52.532;13.336;2024-03-17T10:55:24;4.77;;;1.30;;
16593;SDS011;8410;52.532;13.336;2024-03-17T10:57:53;3.47;;;1.13;;
16593;SDS011;8410;52.532;13.336;2024-03-17T11:00:23;7.67;;;1.70;;
16593;SDS011;8410;52.532;13.336;2024-03-17T11:02:54;9.67;;;2.23;;
16593;SDS011;8410;52.532;13.336;2024-03-17T11:05:23;5.83;;;1.40;;
16593;SDS011;8410;52.532;13.336;2024-03-17T11:07:51;10.80;;;1.70;;
16593;SDS011;8410;52.532;13.336;2024-03-17T11:10:20;6.83;;;1.80;;
16593;SDS011;8410;52.532;13.336;2024-03-17T11:12:49;3.87;;;1.30;;
16593;SDS011;8410;52.532;13.336;2024-03-17T11:15:36;6.93;;;1.70;;
16593;SDS011;8410;52.532;13.336;2024-03-17T11:21:04;7.20;;;1.77;;
16593;SDS011;8410;52.532;13.336;2024-03-17T11:23:40;5.87;;;1.53;;
16593;SDS011;8410;52.532;13.336;2024-03-17T11:26:07;6.90;;;1.60;;
16593;SDS011;8410;52.532;13.336;2024-03-17T11:28:46;9.00;;;1.60;;
16593;SDS011;8410;52.532;13.336;2024-03-17T11:34:28;6.57;;;1.60;;
16593;SDS011;8410;52.532;13.336;2024-03-17T11:36:55;6.50;;;1.33;;
16593;SDS011;8410;52.532;13.336;2024-03-17T11:42:14;6.93;;;1.70;;
16593;SDS011;8410;52.532;13.336;2024-03-17T11:44:43;5.93;;;1.40;;
16593;SDS011;8410;52.532;13.336;2024-03-17T11:47:10;4.80;;;1.30;;
16593;SDS011;8410;52.532;13.336;2024-03-17T11:49:37;3.70;;;1.67;;
16593;SDS011;8410;52.532;13.336;2024-03-17T11:52:04;3.33;;;1.20;;
16593;SDS011;8410;52.532;13.336;2024-03-17T11:54:36;4.33;;;1.20;;
16593;SDS011;8410;52.532;13.336;2024-03-17T11:57:03;7.27;;;1.37;;
16593;SDS011;8410;52.532;13.336;2024-03-17T11:59:31;7.43;;;1.70;;
16593;SDS011;8410;52.532;13.336;2024-03-17T12:01:59;3.50;;;1.20;;
16593;SDS011;8410;52.532;13.336;2024-03-17T12:04:27;2.77;;;1.00;;
16593;SDS011;8410;52.532;13.336;2024-03-17T12:06:53;2.90;;;0.93;;
16593;SDS011;8410;52.532;13.336;2024-03-17T12:09:21;4.00;;;1.00;;
16593;SDS011;8410;52.532;13.336;2024-03-17T12:11:48;5.57;;;1.23;;
16593;SDS011;8410;52.532;13.336;2024-03-17T12:14:17;3.73;;;0.80;;
16593;SDS011;8410;52.532;13.336;2024-03-17T12:16:51;3.30;;;1.10;;
16593;SDS011;8410;52.532;13.336;2024-03-17T12:19:20;3.83;;;1.00;;
16593;SDS011;8410;52.532;13.336;2024-03-17T12:21:47;5.17;;;1.40;;
16593;SDS011;8410;52.532;13.336;2024-03-17T12:24:16;3.97;;;1.20;;
16593;SDS011;8410;52.532;13.336;2024-03-17T12:26:43;6.87;;;2.03;;
16593;SDS011;8410;52.532;13.336;2024-03-17T12:29:23;5.00;;;1.73;;
16593;SDS011;8410;52.532;13.336;2024-03-17T12:31:50;4.27;;;1.17;;
16593;SDS011;8410;52.532;13.336;2024-03-17T12:34:19;4.73;;;1.43;;
16593;SDS011;8410;52.532;13.336;2024-03-17T12:36:45;4.53;;;1.50;;
16593;SDS011;8410;52.532;13.336;2024-03-17T12:39:19;6.37;;;1.20;;
16593;SDS011;8410;52.532;13.336;2024-03-17T12:41:46;4.63;;;1.43;;
16593;SDS011;8410;52.532;13.336;2024-03-17T12:44:27;4.03;;;1.10;;
16593;SDS011;8410;52.532;13.336;2024-03-17T12:46:56;3.80;;;1.30;;
16593;SDS011;8410;52.532;13.336;2024-03-17T12:49:27;3.83;;;1.23;;
16593;SDS011;8410;52.532;13.336;2024-03-17T12:51:53;5.60;;;1.43;;
16593;SDS011;8410;52.532;13.336;2024-03-17T12:54:21;3.27;;;1.10;;
16593;SDS011;8410;52.532;13.336;2024-03-17T12:56:48;2.57;;;1.17;;
16593;SDS011;8410;52.532;13.336;2024-03-17T12:59:36;4.33;;;1.90;;
16593;SDS011;8410;52.532;13.336;2024-03-17T13:02:21;4.47;;;1.20;;
16593;SDS011;8410;52.532;13.336;2024-03-17T13:07:45;4.80;;;1.37;;
16593;SDS011;8410;52.532;13.336;2024-03-17T13:10:13;3.17;;;1.00;;
16593;SDS011;8410;52.532;13.336;2024-03-17T13:12:41;2.83;;;1.17;;
16593;SDS011;8410;52.532;13.336;2024-03-17T13:15:08;6.50;;;1.43;;
16593;SDS011;8410;52.532;13.336;2024-03-17T13:17:37;3.03;;;1.20;;
16593;SDS011;8410;52.532;13.336;2024-03-17T13:20:04;6.50;;;1.50;;
16593;SDS011;8410;52.532;13.336;2024-03-17T13:22:35;2.73;;;1.10;;
16593;SDS011;8410;52.532;13.336;2024-03-17T13:25:04;3.63;;;1.40;;
16593;SDS011;8410;52.532;13.336;2024-03-17T13:27:31;3.50;;;1.17;;
16593;SDS011;8410;52.532;13.336;2024-03-17T13:29:57;2.23;;;1.10;;
16593;SDS011;8410;52.532;13.336;2024-03-17T13:32:24;2.23;;;1.10;;
16593;SDS011;8410;52.532;13.336;2024-03-17T13:34:50;4.03;;;1.40;;
16593;SDS011;8410;52.532;13.336;2024-03-17T13:37:17;2.63;;;1.00;;
16593;SDS011;8410;52.532;13.336;2024-03-17T13:39:45;4.63;;;1.20;;
16593;SDS011;8410;52.532;13.336;2024-03-17T13:42:11;3.33;;;0.90;;
16593;SDS011;8410;52.532;13.336;2024-03-17T13:44:38;3.37;;;1.03;;
16593;SDS011;8410;52.532;13.336;2024-03-17T13:47:05;4.77;;;1.30;;
16593;SDS011;8410;52.532;13.336;2024-03-17T13:49:32;3.90;;;1.10;;
16593;SDS011;8410;52.532;13.336;2024-03-17T13:51:59;3.87;;;1.10;;
16593;SDS011;8410;52.532;13.336;2024-03-17T13:54:26;3.00;;;1.00;;
16593;SDS011;8410;52.532;13.336;2024-03-17T13:56:54;4.17;;;1.23;;
16593;SDS011;8410;52.532;13.336;2024-03-17T13:59:23;2.87;;;1.30;;
16593;SDS011;8410;52.532;13.336;2024-03-17T14:01:50;3.73;;;1.07;;
16593;SDS011;8410;52.532;13.336;2024-03-17T14:04:16;3.53;;;1.10;;
16593;SDS011;8410;52.532;13.336;2024-03-17T14:06:44;3.63;;;1.50;;
16593;SDS011;8410;52.532;13.336;2024-03-17T14:09:12;2.77;;;0.80;;
16593;SDS011;8410;52.532;13.336;2024-03-17T14:11:38;4.37;;;1.10;;
16593;SDS011;8410;52.532;13.336;2024-03-17T14:14:06;4.00;;;1.13;;
16593;SDS011;8410;52.532;13.336;2024-03-17T14:16:33;4.00;;;1.20;;
16593;SDS011;8410;52.532;13.336;2024-03-17T14:19:00;1.37;;;0.70;;
16593;SDS011;8410;52.532;13.336;2024-03-17T14:21:27;2.80;;;1.03;;
16593;SDS011;8410;52.532;13.336;2024-03-17T14:23:54;4.90;;;1.10;;
16593;SDS011;8410;52.532;13.336;2024-03-17T14:26:21;2.40;;;0.90;;
16593;SDS011;8410;52.532;13.336;2024-03-17T14:28:48;3.33;;;0.83;;
16593;SDS011;8410;52.532;13.336;2024-03-17T14:31:16;2.70;;;1.10;;
16593;SDS011;8410;52.532;13.336;2024-03-17T14:33:43;4.37;;;1.20;;
16593;SDS011;8410;52.532;13.336;2024-03-17T14:36:10;3.30;;;1.03;;
16593;SDS011;8410;52.532;13.336;2024-03-17T14:38:37;1.57;;;0.70;;
16593;SDS011;8410;52.532;13.336;2024-03-17T14:41:03;1.90;;;0.80;;
16593;SDS011;8410;52.532;13.336;2024-03-17T14:43:31;5.67;;;1.07;;
16593;SDS011;8410;52.532;13.336;2024-03-17T14:45:57;2.13;;;1.00;;
16593;SDS011;8410;52.532;13.336;2024-03-17T14:48:25;2.83;;;0.90;;
16593;SDS011;8410;52.532;13.336;2024-03-17T14:50:52;2.97;;;1.10;;
16593;SDS011;8410;52.532;13.336;2024-03-17T14:53:18;3.00;;;0.90;;
16593;SDS011;8410;52.532;13.336;2024-03-17T14:55:45;3.23;;;1.00;;